Time;durP1;ratioP1;P1;durP2;ratioP2;P2;SDS_P1;SDS_P2;PMS_P1;PMS_P2;Temp;Humidity;BMP_temperature;BMP_pressure;BME280_temperature;BME280_humidity;BME280_pressure;Samples;Min_cycle;Max_cycle;Signal;HPM_P1;HPM_P2
2023/09/28 00:02:49;;;;;;;8.60;5.57;;;;;;;15.71;100.00;101293.19;4964274;28;20219;-45
2023/09/28 00:05:15;;;;;;;5.72;5.22;;;;;;;15.68;100.00;101274.41;4966030;28;20237;-45
2023/09/28 00:07:41;;;;;;;6.22;5.30;;;;;;;15.74;100.00;101279.53;4961914;28;20574;-43
2023/09/28 00:10:12;;;;;;;5.55;5.05;;;;;;;15.80;100.00;101284.63;4968292;28;20268;-46
2023/09/28 00:12:42;;;;;;;7.78;5.25;;;;;;;15.88;100.00;101287.81;4965592;28;20214;-46
2023/09/28 00:15:09;;;;;;;10.40;4.75;;;;;;;15.90;100.00;101290.44;4964234;28;20247;-45
2023/09/28 00:17:37;;;;;;;7.88;4.78;;;;;;;15.98;100.00;101297.19;4962249;28;20197;-44
2023/09/28 00:20:12;;;;;;;11.43;4.70;;;;;;;16.06;100.00;101299.47;4967086;28;20225;-46
2023/09/28 00:22:37;;;;;;;5.63;5.13;;;;;;;16.12;100.00;101306.38;4962905;28;20232;-46
2023/09/28 00:25:09;;;;;;;8.10;5.15;;;;;;;16.13;100.00;101297.28;4965595;28;20190;-45
2023/09/28 00:27:34;;;;;;;5.10;4.60;;;;;;;16.14;100.00;101294.53;4964188;28;20205;-46
2023/09/28 00:30:00;;;;;;;8.35;4.50;;;;;;;16.15;100.00;101282.72;4964254;28;20182;-45
2023/09/28 00:32:26;;;;;;;7.35;5.15;;;;;;;16.12;100.00;101293.72;4967085;28;20209;-45
2023/09/28 00:34:51;;;;;;;7.90;4.70;;;;;;;16.13;100.00;101287.34;4964470;28;20198;-45
2023/09/28 00:37:16;;;;;;;7.55;4.68;;;;;;;16.14;100.00;101290.94;4967645;28;20204;-45
2023/09/28 00:39:42;;;;;;;6.43;5.10;;;;;;;16.15;100.00;101296.25;4971262;28;20268;-47
2023/09/28 00:42:07;;;;;;;6.55;5.03;;;;;;;16.09;100.00;101298.41;4961631;28;20205;-45
2023/09/28 00:44:33;;;;;;;5.50;4.82;;;;;;;16.05;100.00;101298.59;4959479;28;20190;-46
2023/09/28 00:47:01;;;;;;;7.30;5.18;;;;;;;16.00;100.00;101297.94;4967179;28;20699;-44
2023/09/28 00:49:27;;;;;;;7.07;5.40;;;;;;;16.03;100.00;101302.34;4964742;28;20280;-45
2023/09/28 00:51:52;;;;;;;6.20;5.60;;;;;;;15.99;100.00;101295.34;4965163;28;20238;-45
2023/09/28 00:54:21;;;;;;;6.68;5.70;;;;;;;15.98;100.00;101291.78;4962918;28;20632;-46
2023/09/28 00:56:48;;;;;;;6.32;5.50;;;;;;;16.02;100.00;101300.56;4963457;28;20197;-45
2023/09/28 00:59:14;;;;;;;8.05;5.38;;;;;;;16.02;100.00;101292.47;4970026;28;20743;-46
2023/09/28 01:01:40;;;;;;;8.50;5.60;;;;;;;15.98;100.00;101289.06;4962055;28;20285;-46
2023/09/28 01:04:06;;;;;;;7.80;5.70;;;;;;;15.91;100.00;101286.75;4968361;28;20861;-46
2023/09/28 01:06:35;;;;;;;9.93;5.85;;;;;;;15.93;100.00;101293.81;4965146;28;20221;-46
2023/09/28 01:09:00;;;;;;;6.50;5.50;;;;;;;15.92;100.00;101288.50;4967385;28;20189;-45
2023/09/28 01:11:28;;;;;;;5.70;5.20;;;;;;;15.96;100.00;101284.69;4965284;28;20186;-45
2023/09/28 01:13:53;;;;;;;7.13;5.20;;;;;;;15.95;100.00;101283.81;4965115;28;20185;-46
2023/09/28 01:16:19;;;;;;;8.10;5.65;;;;;;;15.98;100.00;101285.47;4965559;28;20195;-46
2023/09/28 01:18:45;;;;;;;7.25;4.85;;;;;;;15.98;100.00;101278.25;4960757;28;20322;-46
2023/09/28 01:21:11;;;;;;;10.70;5.10;;;;;;;16.01;100.00;101282.63;4965445;28;20220;-46
2023/09/28 01:23:37;;;;;;;6.03;5.43;;;;;;;16.02;100.00;101284.34;4965217;28;20261;-45
2023/09/28 01:26:03;;;;;;;5.68;5.10;;;;;;;16.00;100.00;101281.72;4965997;28;20194;-46
2023/09/28 01:28:29;;;;;;;7.60;5.75;;;;;;;16.02;100.00;101282.53;4963766;28;20190;-46
2023/09/28 01:30:55;;;;;;;6.05;5.35;;;;;;;16.03;100.00;101281.56;4966723;28;20178;-46
2023/09/28 01:33:20;;;;;;;5.57;5.07;;;;;;;16.02;100.00;101263.59;4963714;28;20223;-45
2023/09/28 01:35:46;;;;;;;6.55;5.93;;;;;;;15.99;100.00;101265.63;4959995;28;20192;-44
2023/09/28 01:38:26;;;;;;;7.63;5.47;;;;;;;16.02;100.00;101262.72;4964885;28;20243;-46
2023/09/28 01:40:52;;;;;;;6.15;5.55;;;;;;;16.06;100.00;101265.19;4962357;28;20190;-45
2023/09/28 01:43:17;;;;;;;8.50;5.78;;;;;;;16.01;100.00;101255.59;4964879;28;20268;-44
2023/09/28 01:45:44;;;;;;;6.45;5.78;;;;;;;16.04;100.00;101241.91;4963943;28;20221;-46
2023/09/28 01:48:10;;;;;;;9.40;6.15;;;;;;;16.01;100.00;101245.66;4963923;28;20196;-45
2023/09/28 01:50:36;;;;;;;6.82;6.13;;;;;;;16.01;100.00;101242.94;4952087;28;20253;-46
2023/09/28 01:53:02;;;;;;;9.23;6.25;;;;;;;16.01;100.00;101250.19;4962819;28;20233;-45
2023/09/28 01:55:27;;;;;;;6.68;6.07;;;;;;;16.04;100.00;101236.50;4963583;28;20190;-46
2023/09/28 01:57:53;;;;;;;6.90;6.03;;;;;;;16.07;100.00;101230.94;4965461;28;20193;-44
2023/09/28 02:00:20;;;;;;;8.32;6.47;;;;;;;16.04;100.00;101223.84;4972124;28;20178;-46
2023/09/28 02:02:46;;;;;;;10.52;6.55;;;;;;;16.03;100.00;101214.00;4963883;28;20256;-47
2023/09/28 02:05:15;;;;;;;9.48;6.45;;;;;;;16.09;100.00;101211.91;4967145;28;20276;-46
2023/09/28 02:07:41;;;;;;;8.68;6.88;;;;;;;16.13;100.00;101217.06;4978997;28;20277;-46
2023/09/28 02:10:09;;;;;;;7.00;6.40;;;;;;;16.15;100.00;101208.88;4962795;28;20273;-46
2023/09/28 02:12:38;;;;;;;8.70;6.82;;;;;;;16.16;100.00;101200.69;4965753;28;20218;-46
2023/09/28 02:15:04;;;;;;;8.75;6.68;;;;;;;16.27;100.00;101214.47;4963347;28;20186;-46
2023/09/28 02:17:30;;;;;;;7.30;6.60;;;;;;;16.26;100.00;101215.41;4972635;28;20182;-44
2023/09/28 02:19:56;;;;;;;7.80;6.50;;;;;;;16.27;100.00;101208.22;4970246;28;20675;-45
2023/09/28 02:22:22;;;;;;;8.02;7.22;;;;;;;16.22;100.00;101200.34;4969422;28;20309;-45
2023/09/28 02:24:50;;;;;;;7.63;6.45;;;;;;;16.14;100.00;101217.97;4965929;28;20484;-44
2023/09/28 02:27:17;;;;;;;7.97;7.28;;;;;;;16.10;100.00;101217.25;4968834;28;20228;-45
2023/09/28 02:29:46;;;;;;;10.05;6.88;;;;;;;16.08;100.00;101232.66;4965323;28;20175;-46
2023/09/28 02:32:15;;;;;;;7.38;6.68;;;;;;;16.03;100.00;101241.03;4968289;28;20272;-45
2023/09/28 02:34:41;;;;;;;7.10;6.40;;;;;;;15.98;100.00;101235.03;4964921;28;20225;-45
2023/09/28 02:37:06;;;;;;;8.43;7.43;;;;;;;15.98;100.00;101235.03;4965324;28;20185;-45
2023/09/28 02:39:36;;;;;;;7.35;6.43;;;;;;;15.94;100.00;101246.06;4964045;28;20182;-45
2023/09/28 02:42:07;;;;;;;8.98;6.60;;;;;;;15.92;100.00;101246.16;4966475;28;20225;-44
2023/09/28 02:44:36;;;;;;;7.90;6.78;;;;;;;15.87;100.00;101250.91;4980135;28;20637;-46
2023/09/28 02:47:05;;;;;;;8.27;7.43;;;;;;;15.93;100.00;101238.91;4961746;28;20226;-46
2023/09/28 02:49:34;;;;;;;9.50;7.05;;;;;;;15.88;100.00;101236.47;4965625;28;20193;-45
2023/09/28 02:52:01;;;;;;;8.32;7.28;;;;;;;15.82;100.00;101221.44;4964027;28;20210;-46
2023/09/28 02:54:26;;;;;;;8.20;7.07;;;;;;;15.83;100.00;101217.81;4969266;28;20179;-46
2023/09/28 02:56:53;;;;;;;10.00;7.70;;;;;;;15.75;100.00;101219.16;4963411;28;20229;-47
2023/09/28 02:59:22;;;;;;;9.25;8.02;;;;;;;15.73;100.00;101215.69;4962849;28;20241;-44
2023/09/28 03:01:48;;;;;;;8.77;7.95;;;;;;;15.71;100.00;101226.56;4962792;28;20624;-45
2023/09/28 03:04:16;;;;;;;8.98;8.18;;;;;;;15.73;100.00;101226.47;4971490;28;20276;-45
2023/09/28 03:06:41;;;;;;;8.30;7.50;;;;;;;15.70;100.00;101235.59;4961769;28;20336;-46
2023/09/28 03:09:09;;;;;;;9.75;8.00;;;;;;;15.68;100.00;101236.59;4963614;28;20185;-45
2023/09/28 03:11:35;;;;;;;9.20;8.40;;;;;;;15.70;100.00;101234.69;4963888;28;20193;-45
2023/09/28 03:14:02;;;;;;;9.45;8.07;;;;;;;15.64;100.00;101219.72;4970745;28;20194;-46
2023/09/28 03:16:27;;;;;;;9.60;8.50;;;;;;;15.62;100.00;101216.22;4970268;28;20218;-46
2023/09/28 03:18:54;;;;;;;12.07;8.00;;;;;;;15.58;100.00;101207.38;4958626;28;20175;-46
2023/09/28 03:21:19;;;;;;;11.25;8.65;;;;;;;15.61;100.00;101203.66;4963550;28;20181;-46
2023/09/28 03:23:45;;;;;;;11.43;8.40;;;;;;;15.59;100.00;101205.56;4964302;28;20633;-46
2023/09/28 03:26:11;;;;;;;11.13;9.10;;;;;;;15.57;100.00;101202.09;4964702;28;20216;-46
2023/09/28 03:28:37;;;;;;;9.38;8.52;;;;;;;15.53;100.00;101197.81;4962266;28;20183;-44
2023/09/28 03:31:03;;;;;;;10.07;9.00;;;;;;;15.53;100.00;101212.16;4962562;28;20190;-44
2023/09/28 03:33:28;;;;;;;10.80;9.73;;;;;;;15.56;100.00;101208.44;4964292;28;20260;-43
2023/09/28 03:35:55;;;;;;;9.63;8.73;;;;;;;15.59;100.00;101205.56;4960061;28;20195;-45
2023/09/28 03:38:20;;;;;;;11.05;9.57;;;;;;;15.59;100.00;101201.06;4964156;28;20198;-45
2023/09/28 03:40:46;;;;;;;11.50;8.90;;;;;;;15.58;100.00;101203.81;4968473;28;20183;-43
2023/09/28 03:43:11;;;;;;;11.73;8.95;;;;;;;15.54;100.00;101199.53;4967623;28;20236;-44
2023/09/28 03:45:37;;;;;;;11.40;7.82;;;;;;;15.52;100.00;101196.91;4962230;28;20313;-44
2023/09/28 03:48:03;;;;;;;10.57;8.23;;;;;;;15.49;100.00;101188.97;4963692;28;20194;-44
2023/09/28 03:50:28;;;;;;;9.75;8.85;;;;;;;15.48;100.00;101192.66;4965089;28;20801;-44
2023/09/28 03:52:54;;;;;;;12.25;8.73;;;;;;;15.51;100.00;101200.56;4963529;28;20344;-44
2023/09/28 03:55:23;;;;;;;11.02;8.82;;;;;;;15.54;100.00;101192.28;4965737;28;20185;-45
2023/09/28 03:57:50;;;;;;;9.15;8.15;;;;;;;15.56;100.00;101193.09;4963076;28;20194;-44
2023/09/28 04:00:17;;;;;;;14.27;8.70;;;;;;;15.58;100.00;101196.59;4964082;28;20347;-44
2023/09/28 04:02:45;;;;;;;9.73;8.73;;;;;;;15.54;100.00;101199.53;4961887;28;20241;-44
2023/09/28 04:05:10;;;;;;;10.90;8.75;;;;;;;15.59;100.00;101190.25;4966393;28;20229;-43
2023/09/28 04:07:37;;;;;;;14.02;8.45;;;;;;;15.56;100.00;101198.50;4967557;28;20278;-43
2023/09/28 04:10:03;;;;;;;12.43;8.93;;;;;;;15.57;100.00;101189.44;4964466;28;20178;-44
2023/09/28 04:12:29;;;;;;;11.75;8.77;;;;;;;15.60;100.00;101191.13;4964097;28;20193;-46
2023/09/28 04:14:54;;;;;;;12.70;9.52;;;;;;;15.59;100.00;101203.75;4961873;28;20688;-44
2023/09/28 04:17:20;;;;;;;11.95;8.75;;;;;;;15.61;100.00;101204.53;4968188;28;20207;-47
2023/09/28 04:19:46;;;;;;;9.55;8.30;;;;;;;15.66;100.00;101205.16;4963934;28;20371;-44
2023/09/28 04:22:12;;;;;;;9.95;8.90;;;;;;;15.68;100.00;101212.28;4964535;28;20233;-45
2023/09/28 04:24:37;;;;;;;9.70;8.70;;;;;;;15.65;100.00;101200.72;4964683;28;20202;-45
2023/09/28 04:27:03;;;;;;;11.70;8.80;;;;;;;15.59;100.00;101190.25;4964613;28;20244;-45
2023/09/28 04:29:28;;;;;;;12.93;9.98;;;;;;;15.64;100.00;101179.19;4964912;28;20224;-46
2023/09/28 04:31:54;;;;;;;10.95;8.30;;;;;;;15.63;100.00;101183.72;4979989;28;20255;-45
2023/09/28 04:34:20;;;;;;;10.80;8.60;;;;;;;15.60;100.00;101170.38;4965512;28;20192;-46
2023/09/28 04:36:46;;;;;;;9.40;8.23;;;;;;;15.62;100.00;101167.59;4965285;28;20187;-44
2023/09/28 04:39:12;;;;;;;11.75;8.98;;;;;;;15.62;100.00;101167.59;4966824;28;20212;-45
2023/09/28 04:41:38;;;;;;;10.93;8.70;;;;;;;15.69;100.00;101174.41;4961261;28;20186;-44
2023/09/28 04:44:05;;;;;;;9.05;8.13;;;;;;;15.69;100.00;101173.53;4967195;28;20198;-45
2023/09/28 04:46:31;;;;;;;11.63;9.65;;;;;;;15.66;100.00;101167.34;4960583;28;20233;-46
2023/09/28 04:48:57;;;;;;;10.32;9.43;;;;;;;15.62;100.00;101157.66;4966490;28;20543;-47
2023/09/28 04:51:23;;;;;;;12.98;8.88;;;;;;;15.63;100.00;101156.72;4966972;28;20190;-45
2023/09/28 04:53:49;;;;;;;9.48;8.40;;;;;;;15.72;100.00;101151.78;4965124;28;20305;-47
2023/09/28 04:56:17;;;;;;;11.60;8.85;;;;;;;15.69;100.00;101158.19;4964476;28;20266;-46
2023/09/28 04:58:43;;;;;;;10.65;9.32;;;;;;;15.70;100.00;101156.34;4966645;28;20704;-46
2023/09/28 05:01:09;;;;;;;13.25;9.00;;;;;;;15.72;100.00;101165.28;4965371;28;20194;-45
2023/09/28 05:03:35;;;;;;;10.63;8.40;;;;;;;15.70;100.00;101188.78;4964572;28;20206;-45
2023/09/28 05:06:01;;;;;;;10.70;9.10;;;;;;;15.69;100.00;101197.84;4961362;28;20726;-45
2023/09/28 05:08:26;;;;;;;9.32;8.27;;;;;;;15.71;100.00;101199.53;4964975;28;20379;-45
2023/09/28 05:10:53;;;;;;;9.93;8.25;;;;;;;15.72;100.00;101195.00;4965016;28;20193;-46
2023/09/28 05:13:20;;;;;;;11.30;8.60;;;;;;;15.75;100.00;101201.13;4963465;28;20205;-48
2023/09/28 05:15:46;;;;;;;10.73;8.40;;;;;;;15.74;100.00;101199.41;4965528;28;20276;-45
2023/09/28 05:18:11;;;;;;;8.57;7.70;;;;;;;15.77;100.00;101201.91;4968007;28;20232;-45
2023/09/28 05:20:37;;;;;;;10.48;7.97;;;;;;;15.78;100.00;101209.06;4962818;28;20829;-45
2023/09/28 05:23:03;;;;;;;10.57;7.43;;;;;;;15.81;100.00;101205.34;4960664;28;20686;-44
2023/09/28 05:25:30;;;;;;;11.57;7.57;;;;;;;15.82;100.00;101212.47;4960816;28;20184;-46
2023/09/28 05:27:55;;;;;;;11.77;8.63;;;;;;;15.84;100.00;101197.91;4959545;28;20679;-47
2023/09/28 05:30:20;;;;;;;9.50;8.60;;;;;;;15.91;100.00;101211.09;4955784;28;20182;-45
2023/09/28 05:32:46;;;;;;;10.50;8.15;;;;;;;15.87;100.00;101202.28;4962952;28;20191;-46
2023/09/28 05:35:11;;;;;;;13.07;8.45;;;;;;;15.85;100.00;101215.00;4966867;28;20580;-45
2023/09/28 05:37:37;;;;;;;9.13;8.20;;;;;;;15.86;100.00;101211.34;4968911;28;20625;-46
2023/09/28 05:40:07;;;;;;;10.80;8.60;;;;;;;15.90;100.00;101201.25;4967186;28;20550;-44
2023/09/28 05:42:34;;;;;;;9.88;8.98;;;;;;;15.90;100.00;101206.66;4966622;28;20263;-46
2023/09/28 05:45:00;;;;;;;9.52;8.18;;;;;;;15.90;100.00;101212.06;4964663;28;20198;-46
2023/09/28 05:47:26;;;;;;;12.15;7.70;;;;;;;15.91;100.00;101205.69;4957743;28;20316;-48
2023/09/28 05:49:52;;;;;;;10.65;7.45;;;;;;;15.95;100.00;101210.84;4968223;28;20178;-47
2023/09/28 05:52:18;;;;;;;9.38;8.35;;;;;;;15.97;100.00;101222.44;4961921;28;20771;-46
2023/09/28 05:54:44;;;;;;;9.65;7.40;;;;;;;16.01;100.00;101215.06;4960156;28;20198;-47
2023/09/28 05:57:11;;;;;;;8.68;6.88;;;;;;;16.03;100.00;101219.41;4969935;28;20182;-44
2023/09/28 05:59:36;;;;;;;9.65;7.28;;;;;;;16.07;100.00;101225.53;4964395;28;20206;-47
2023/09/28 06:02:02;;;;;;;9.82;7.70;;;;;;;16.10;100.00;101213.69;4962500;28;20212;-46
2023/09/28 06:04:27;;;;;;;12.57;7.70;;;;;;;16.14;100.00;101218.81;4958484;28;20225;-47
2023/09/28 06:06:53;;;;;;;11.90;6.95;;;;;;;16.16;100.00;101218.72;4964005;28;20578;-45
2023/09/28 06:09:19;;;;;;;8.32;7.30;;;;;;;16.18;100.00;101220.41;4965196;28;20194;-45
2023/09/28 06:11:46;;;;;;;9.43;6.63;;;;;;;16.16;100.00;101235.84;4960892;28;20214;-46
2023/09/28 06:14:13;;;;;;;9.50;7.15;;;;;;;16.20;100.00;101237.41;4960547;28;20230;-44
2023/09/28 06:16:40;;;;;;;8.10;7.30;;;;;;;16.21;100.00;101239.16;4964506;28;20179;-46
2023/09/28 06:19:06;;;;;;;7.95;7.13;;;;;;;16.28;100.00;101235.13;4964483;28;20195;-46
2023/09/28 06:21:32;;;;;;;8.23;7.03;;;;;;;16.24;100.00;101232.69;4957407;28;20257;-44
2023/09/28 06:23:57;;;;;;;7.93;7.07;;;;;;;16.27;100.00;101236.09;4967287;28;20201;-46
2023/09/28 06:26:23;;;;;;;7.57;6.85;;;;;;;16.29;100.00;101233.34;4966810;28;20217;-45
2023/09/28 06:28:48;;;;;;;9.75;7.10;;;;;;;16.38;100.00;101240.06;4964464;28;20178;-45
2023/09/28 06:31:15;;;;;;;9.98;6.65;;;;;;;16.44;100.00;101234.28;4966631;28;20334;-46
2023/09/28 06:33:42;;;;;;;9.80;6.70;;;;;;;16.45;100.00;101253.13;4966346;28;20205;-45
2023/09/28 06:36:08;;;;;;;7.55;6.85;;;;;;;16.48;100.00;101249.38;4965950;28;20190;-46
2023/09/28 06:38:33;;;;;;;7.60;6.43;;;;;;;16.51;100.00;101248.31;4965986;28;20417;-46
2023/09/28 06:40:58;;;;;;;8.15;6.03;;;;;;;16.53;100.00;101249.13;4964534;28;20396;-46
2023/09/28 06:43:25;;;;;;;7.95;6.32;;;;;;;16.48;100.00;101255.66;4965077;28;20202;-43
2023/09/28 06:45:50;;;;;;;8.30;6.95;;;;;;;16.51;100.00;101262.75;4965862;28;20213;-45
2023/09/28 06:48:16;;;;;;;8.95;6.68;;;;;;;16.52;100.00;101258.19;4967368;28;20198;-46
2023/09/28 06:50:42;;;;;;;10.32;7.13;;;;;;;16.47;100.00;101259.31;4968030;28;20379;-46
2023/09/28 06:53:07;;;;;;;7.95;6.85;;;;;;;16.48;100.00;101266.47;4965455;28;20349;-44
2023/09/28 06:55:33;;;;;;;9.02;6.60;;;;;;;16.48;100.00;101268.31;4964522;28;20189;-45
2023/09/28 06:57:59;;;;;;;8.43;6.80;;;;;;;16.48;100.00;101279.13;4967488;28;20285;-45
2023/09/28 07:00:24;;;;;;;8.40;6.85;;;;;;;16.50;100.00;101266.41;4965772;28;20197;-46
2023/09/28 07:02:50;;;;;;;11.20;6.90;;;;;;;16.51;100.00;101278.97;4964282;28;20207;-44
2023/09/28 07:05:17;;;;;;;11.18;6.78;;;;;;;16.54;100.00;101275.22;4964138;28;20604;-45
2023/09/28 07:07:45;;;;;;;8.70;6.70;;;;;;;16.57;100.00;101277.75;4971138;28;20210;-44
2023/09/28 07:10:11;;;;;;;7.50;6.75;;;;;;;16.58;100.00;101277.66;4965017;28;20187;-43
2023/09/28 07:12:37;;;;;;;10.30;6.80;;;;;;;16.61;100.00;101274.78;4966678;28;20189;-45
2023/09/28 07:15:04;;;;;;;7.30;6.60;;;;;;;16.66;100.00;101279.91;4966980;28;20212;-45
2023/09/28 07:17:30;;;;;;;8.25;6.78;;;;;;;16.70;100.00;101286.91;4965819;28;20541;-45
2023/09/28 07:19:56;;;;;;;8.00;6.95;;;;;;;16.73;100.00;101296.72;4968897;28;20202;-46
2023/09/28 07:22:22;;;;;;;9.68;7.22;;;;;;;16.74;100.00;101291.19;4967452;23;20601;-47
2023/09/28 07:24:48;;;;;;;8.10;7.28;;;;;;;16.76;100.00;101302.81;4944942;28;20278;-47
2023/09/28 07:27:13;;;;;;;9.60;7.18;;;;;;;16.77;100.00;101303.66;4946510;28;20290;-47
2023/09/28 07:29:39;;;;;;;9.05;6.63;;;;;;;16.78;100.00;101290.06;4943874;28;20651;-47
2023/09/28 07:32:06;;;;;;;10.95;7.63;;;;;;;16.81;100.00;101294.44;4944045;28;20306;-47
2023/09/28 07:34:32;;;;;;;7.57;6.88;;;;;;;16.80;100.00;101301.72;4944599;28;20183;-47
2023/09/28 07:36:57;;;;;;;8.98;7.20;;;;;;;16.85;100.00;101304.16;4944433;28;20760;-47
2023/09/28 07:39:23;;;;;;;7.97;7.18;;;;;;;16.88;100.00;101301.28;4942148;28;20199;-45
2023/09/28 07:41:51;;;;;;;7.85;6.85;;;;;;;16.91;100.00;101302.94;4945276;28;20194;-46
2023/09/28 07:44:18;;;;;;;8.05;7.25;;;;;;;16.92;100.00;101312.78;4945465;28;20208;-48
2023/09/28 07:46:45;;;;;;;8.27;7.13;;;;;;;16.94;100.00;101300.91;4941800;28;20192;-48
2023/09/28 07:49:12;;;;;;;8.43;7.63;;;;;;;16.95;100.00;101308.09;4946246;28;20190;-46
2023/09/28 07:51:39;;;;;;;10.75;6.25;;;;;;;17.07;100.00;101311.91;4944223;28;20622;-46
2023/09/28 07:54:05;;;;;;;7.70;6.75;;;;;;;17.02;100.00;101311.31;4943077;28;20186;-41
2023/09/28 07:56:31;;;;;;;11.85;7.45;;;;;;;16.93;100.00;101323.53;4947260;28;20194;-42
2023/09/28 07:58:57;;;;;;;8.93;8.05;;;;;;;16.95;100.00;101318.03;4950632;28;20291;-42
2023/09/28 08:01:25;;;;;;;9.20;6.97;;;;;;;17.09;100.00;101326.22;4946720;28;20191;-41
2023/09/28 08:03:51;;;;;;;7.28;6.55;;;;;;;17.36;100.00;101322.88;4942596;28;20179;-42
2023/09/28 08:06:16;;;;;;;9.30;7.22;;;;;;;17.79;100.00;101317.59;4948278;28;20217;-41
2023/09/28 08:08:42;;;;;;;7.75;7.05;;;;;;;18.27;100.00;101315.56;4948692;28;20203;-41
2023/09/28 08:11:08;;;;;;;8.35;6.55;;;;;;;18.55;100.00;101327.41;4947397;28;20217;-41
2023/09/28 08:13:34;;;;;;;6.63;6.03;;;;;;;18.83;100.00;101316.53;4946633;28;20202;-42
2023/09/28 08:15:59;;;;;;;9.50;6.70;;;;;;;18.85;100.00;101322.75;4968660;28;20253;-42
2023/09/28 08:18:26;;;;;;;8.52;6.60;;;;;;;19.25;98.93;101311.94;4946870;28;20199;-42
2023/09/28 08:20:51;;;;;;;9.73;6.90;;;;;;;19.08;96.96;101320.34;4944419;28;20202;-40
2023/09/28 08:23:18;;;;;;;7.10;6.40;;;;;;;19.40;96.28;101315.50;4949561;28;20590;-43
2023/09/28 08:25:44;;;;;;;6.75;5.93;;;;;;;19.63;94.90;101313.03;4949200;28;20214;-42
2023/09/28 08:28:10;;;;;;;7.55;6.63;;;;;;;19.89;93.37;101322.16;4944144;28;20190;-43
2023/09/28 08:30:35;;;;;;;8.90;6.47;;;;;;;19.60;91.76;101316.84;4964157;28;20266;-43
2023/09/28 08:33:01;;;;;;;7.65;6.50;;;;;;;19.75;91.31;101334.84;4946884;28;20692;-43
2023/09/28 08:35:26;;;;;;;8.90;6.70;;;;;;;20.03;90.00;101322.06;4943279;28;20233;-42
2023/09/28 08:37:52;;;;;;;9.07;5.57;;;;;;;20.02;89.47;101324.88;4948087;28;20277;-42
2023/09/28 08:40:18;;;;;;;6.88;5.82;;;;;;;20.02;88.57;101320.31;4950137;28;20273;-42
2023/09/28 08:42:45;;;;;;;8.35;5.88;;;;;;;20.30;88.44;101323.81;4946573;28;20351;-42
2023/09/28 08:45:12;;;;;;;7.25;5.88;;;;;;;20.48;86.98;101322.47;4944931;28;20186;-42
2023/09/28 08:47:47;;;;;;;7.15;5.68;;;;;;;20.21;86.48;101319.03;4946224;28;20555;-40
2023/09/28 08:50:27;;;;;;;5.50;4.95;;;;;;;20.54;86.68;101323.91;4945548;28;20293;-41
2023/09/28 08:52:54;;;;;;;6.72;5.05;;;;;;;20.50;86.22;101317.78;4964874;28;20281;-41
2023/09/28 08:55:21;;;;;;;7.05;5.75;;;;;;;20.27;86.17;101321.28;4945673;28;20554;-43
2023/09/28 08:57:46;;;;;;;9.25;6.03;;;;;;;20.43;85.59;101323.81;4945621;28;20191;-43
2023/09/28 09:00:14;;;;;;;8.00;5.43;;;;;;;20.63;85.22;101333.28;4945461;28;20252;-40
2023/09/28 09:02:43;;;;;;;8.13;5.43;;;;;;;20.53;84.77;101320.31;4944855;28;20207;-41
2023/09/28 09:05:12;;;;;;;8.85;5.50;;;;;;;20.51;84.54;101333.16;4944444;28;20677;-40
2023/09/28 09:07:40;;;;;;;6.10;4.82;;;;;;;20.62;84.34;101331.53;4944826;28;20203;-42
2023/09/28 09:10:08;;;;;;;9.27;4.53;;;;;;;20.44;84.09;101330.97;4931083;28;20683;-42
2023/09/28 09:12:35;;;;;;;9.77;5.10;;;;;;;20.62;84.04;101342.41;4945886;28;20206;-41
2023/09/28 09:15:01;;;;;;;7.90;5.38;;;;;;;20.66;83.53;101336.66;4948408;28;20662;-41
2023/09/28 09:17:33;;;;;;;5.32;4.80;;;;;;;20.68;83.15;101339.25;4945741;28;20191;-42
2023/09/28 09:19:59;;;;;;;6.35;4.18;;;;;;;21.04;82.18;101334.81;4951069;28;20277;-43
2023/09/28 09:22:28;;;;;;;6.45;4.55;;;;;;;20.63;81.38;101331.41;4947336;28;20211;-43
2023/09/28 09:25:00;;;;;;;5.65;3.95;;;;;;;20.80;81.72;101323.88;4946058;28;20186;-44
2023/09/28 09:27:30;;;;;;;5.45;4.20;;;;;;;21.04;81.27;101334.81;4947894;28;20687;-40
2023/09/28 09:30:08;;;;;;;9.55;4.13;;;;;;;21.12;80.84;101321.47;4948809;28;20388;-41
2023/09/28 09:32:38;;;;;;;9.35;4.38;;;;;;;20.86;80.65;101318.84;4943963;28;20214;-41
2023/09/28 09:35:06;;;;;;;7.93;3.95;;;;;;;20.77;80.80;101308.63;4948474;28;20743;-42
2023/09/28 09:37:31;;;;;;;11.23;3.60;;;;;;;21.22;80.05;101311.63;4945432;28;20687;-43
2023/09/28 09:40:11;;;;;;;6.03;3.38;;;;;;;21.26;79.27;101320.47;4946081;28;20195;-44
2023/09/28 09:42:36;;;;;;;8.55;4.07;;;;;;;21.11;79.48;101325.19;4943598;28;20212;-46
2023/09/28 09:45:04;;;;;;;8.75;3.30;;;;;;;21.40;78.63;101310.22;4950551;28;20561;-46
2023/09/28 09:47:29;;;;;;;9.40;3.40;;;;;;;21.45;77.70;101296.28;4949754;28;20736;-45
2023/09/28 09:49:56;;;;;;;6.65;3.42;;;;;;;21.22;78.41;101308.91;4950832;28;20280;-45
2023/09/28 09:52:26;;;;;;;5.05;3.58;;;;;;;21.49;78.58;101303.22;4943907;28;20215;-45
2023/09/28 09:54:51;;;;;;;7.13;3.63;;;;;;;21.19;78.47;101301.84;4951523;28;20551;-45
2023/09/28 09:57:20;;;;;;;12.40;3.55;;;;;;;21.55;78.03;101308.22;4960689;28;20182;-45
2023/09/28 09:59:49;;;;;;;8.50;3.70;;;;;;;21.52;77.45;101294.84;4946913;28;20183;-44
2023/09/28 10:02:25;;;;;;;9.98;3.97;;;;;;;21.55;77.73;101293.72;4950550;28;20221;-43
2023/09/28 10:04:54;;;;;;;7.15;3.63;;;;;;;21.33;77.32;101291.75;4941781;28;20191;-43
2023/09/28 10:07:33;;;;;;;6.50;3.30;;;;;;;21.25;77.89;101307.78;4946079;28;20217;-44
2023/09/28 10:09:59;;;;;;;8.60;3.75;;;;;;;21.26;78.42;101310.41;4948163;28;20760;-44
2023/09/28 10:12:28;;;;;;;8.95;3.70;;;;;;;21.50;78.86;101321.34;4949819;28;20216;-44
2023/09/28 10:14:56;;;;;;;6.97;3.58;;;;;;;21.67;78.25;101324.63;4946662;28;20190;-44
2023/09/28 10:17:25;;;;;;;7.15;3.45;;;;;;;21.77;77.63;101323.78;4950502;28;20544;-44
2023/09/28 10:19:53;;;;;;;6.88;3.65;;;;;;;21.67;77.15;101319.16;4951877;28;20191;-46
2023/09/28 10:22:19;;;;;;;9.60;3.72;;;;;;;21.75;76.53;101316.72;4946740;28;20220;-45
2023/09/28 10:24:44;;;;;;;6.45;2.80;;;;;;;21.78;76.07;101319.22;4948965;28;20170;-46
2023/09/28 10:27:10;;;;;;;7.10;2.92;;;;;;;21.79;75.83;101318.22;4955578;28;20689;-43
2023/09/28 10:29:37;;;;;;;5.88;3.33;;;;;;;21.70;76.03;101319.81;4945359;28;20201;-45
2023/09/28 10:32:13;;;;;;;8.75;3.90;;;;;;;21.99;75.53;101313.94;4949606;28;20198;-43
2023/09/28 10:34:43;;;;;;;5.10;3.20;;;;;;;21.83;75.46;101316.13;4948203;28;20426;-44
2023/09/28 10:37:10;;;;;;;6.78;3.75;;;;;;;21.68;75.99;101326.38;4952499;28;20170;-43
2023/09/28 10:39:57;;;;;;;8.25;3.65;;;;;;;21.48;76.29;101325.19;4948002;28;20190;-45
2023/09/28 10:42:23;;;;;;;6.72;3.35;;;;;;;21.61;76.80;101331.44;4944762;28;20206;-44
2023/09/28 10:44:50;;;;;;;6.82;3.45;;;;;;;21.66;76.24;101323.75;4949622;28;20190;-44
2023/09/28 10:47:16;;;;;;;10.07;3.88;;;;;;;21.70;75.88;101319.81;4953695;28;20300;-44
2023/09/28 10:49:41;;;;;;;6.97;3.25;;;;;;;21.57;76.01;101330.78;4953957;28;20226;-43
2023/09/28 10:52:09;;;;;;;5.80;3.45;;;;;;;21.57;76.51;101336.22;4950561;28;20229;-45
2023/09/28 10:54:36;;;;;;;7.40;3.85;;;;;;;21.68;75.75;101340.00;4945755;28;20199;-44
2023/09/28 10:57:02;;;;;;;8.02;3.50;;;;;;;22.04;75.94;101336.28;4946097;28;20253;-45
2023/09/28 10:59:28;;;;;;;8.90;3.75;;;;;;;21.73;75.56;101343.25;4952519;28;20672;-46
2023/09/28 11:01:54;;;;;;;5.35;3.80;;;;;;;21.63;75.52;101351.28;4951367;28;20209;-46
2023/09/28 11:04:20;;;;;;;5.10;3.58;;;;;;;21.25;76.83;101363.16;4948635;28;20337;-42
2023/09/28 11:06:46;;;;;;;7.90;3.55;;;;;;;21.46;76.94;101357.13;4951992;28;20206;-44
2023/09/28 11:09:12;;;;;;;9.93;3.58;;;;;;;21.19;76.96;101348.16;4948767;28;20503;-45
2023/09/28 11:11:40;;;;;;;9.52;3.47;;;;;;;21.03;77.33;101358.44;4950084;28;20194;-45
2023/09/28 11:14:06;;;;;;;8.73;3.83;;;;;;;21.10;77.17;101367.03;4948020;28;20311;-46
2023/09/28 11:16:35;;;;;;;8.15;3.72;;;;;;;21.27;77.47;101363.94;4949983;28;20244;-44